Pagina principale
METAR-TAF:

METAR-TAF

Aeroporti :

Vitoria, Spagna

latitudine: 42-53N, longitudine: 002-43W, altezza: 513 m

Osservazione

Il bollettino è stato emesso 16 minuti fa, alle 18:00 UTC
Vento 6 kt da sud-ovest
Temperature 5°C
Umidità 93%
Pressione 1005 hPa
Visibilità 10 km o più
Poco nuvoloso ad un'altezza di 3000 ft
Nubi sparse ad un'altezza di 6500 ft

METAR: LEVT 211800Z 23006KT 9999 FEW030 SCT065 05/04 Q1005

Ora: 19:16 (18:16 UTC)

Previsione

Il bollettino è stato emesso 1 ora e 16 minuti fa, alle 17:00 UTC
Previsione valida dal 21 alle 18 UTC al 22 alle 18 UTC
Vento 9 kt da sud/sud-ovest
Visibilità 10 km o più
Poco nuvoloso ad un'altezza di 2000 ft
Nubi sparse ad un'altezza di 3000 ft
Temporaneamente
dal 22 alle 08 UTC al 22 alle 18 UTC
Vento 15 kt da sud con raffiche fino a 30 kt
Visibilità: 4000 m
pioggia

TAF: LEVT 211700Z 2118/2218 21009KT 9999 FEW020 SCT030 TX09/2217Z TN02/2122Z TEMPO 2208/2218 17015G30KT 4000 RA

Osservazioni e previsioni meteorologiche di più di 4000 aeroporti (messaggi METAR e TAF).

Le stazioni disponibili sono rappresentate dai dischi gialli e rossi sulla carta.

Puntare il mouse per vedere il nome della stazione.

Clicca sopra per visualizzare le osservazioni e previsioni meteorologiche.

Per cambiare la mappa : fare clic sui pulsanti verdi con una croce nera per ingrandire, il pulsante verde con un trattino per diminuire, o sulla freccia verde per le mappe adiacenti.


METAR-TAF: